Portada
METAR-TAF:

METAR-TAF

Aeropuertos :

Bolzano, Italia

latitud: 46-28N, longitud: 011-20E, altitud: 262 m

Observación

El informe se hizo hace 1 hora y 16 minutos, a las 19:50 UTC
Viento calma
Temperatura 12°C
Humedad 100%
Presión 1018 hPa
Visibilidad: 2500 m
Escasas nubes a una altura de 500 ft
Cielo nuboso a una altura de 2000 ft
llovizna ligera, neblina

METAR: LIPB 231950Z 00000KT 2500 -DZ BR FEW005 BKN020 12/12 Q1018 REDZ RMK MON INVIS

Hora: 23:06 (21:06 UTC)

Pronóstico

El informe se hizo hace 4 horas y 6 minutos, a las 17:00 UTC
Pronóstico válido del 23 a las 18 UTC al 24 a las 18 UTC
Viento 5 kt con dirección variable
Visibilidad: 7000 m
Nubes dispersas a una altura de 1500 ft
Cielo nuboso a una altura de 3000 ft
Temporalmente
del 23 a las 21 UTC al 24 a las 11 UTC
Visibilidad: 3000 m
lluvia

TAF: LIPB 231700Z 2318/2418 VRB05KT 7000 SCT015 BKN030 TEMPO 2321/2411 3000 RA

Observaciones y pronósticos meteorológicos de más de 4000 aeropuertos (mensajes METAR y TAF).

Los puntos amarillos y rojos representan las estaciones disponibles.

Ponga el ratón en el punto deseado para ver el nombre de la estación.

Haga clic para ver las observaciones y los pronósticos meteorológicos.

Para cambiar el mapa : haga clic en los botones verdes con una cruz de color negro para hacer un zoom, en el botón verde con un guión para alejar o en las flechas verdes para mapas adyacentes.


METAR-TAF: